Create Tblcommutelog Verified Points Advance Search
| # | Trip ID | Id Commuter | Trip Date | Trip Num | Current Lat | Current Lng | Delta Distance | Current Time | Activity | Activity Confidence | Current Speed | |
|---|---|---|---|---|---|---|---|---|---|---|---|---|
| 68941 | 251209_789556_16658438_1602 | 789556 | (not set) | (not set) | 39.239602200394 | -76.70087562851 | 7.8613 | 2025-12-09 16:37:01 | in_vehicle | 100 | 6.6161810330183 | |
| 68942 | 251209_769309_16636345_1600 | 769309 | (not set) | (not set) | 38.976393167617 | -77.445106395074 | 25.6265 | 2025-12-09 16:37:06 | in_vehicle | 100 | 9.0972489204002 | |
| 68943 | 251209_788116_16656678_1602 | 788116 | (not set) | (not set) | 38.852440886448 | -77.401344861399 | 33.0382 | 2025-12-09 16:37:10 | unknown | 100 | 15.042871064937 | |
| 68944 | 251209_769309_16636345_1600 | 769309 | (not set) | (not set) | 38.977412923497 | -77.447991422953 | 25.797 | 2025-12-09 16:37:18 | in_vehicle | 100 | 10.988224985918 | |
| 68945 | 251209_769852_16636925_1630 | 769852 | (not set) | (not set) | 38.942178785338 | -77.062240377606 | 3.086 | 2025-12-09 16:37:23 | in_vehicle | 100 | -0.44703925898772 | |
| 68946 | 251209_789556_16658438_1602 | 789556 | (not set) | (not set) | 39.238787752952 | -76.705007080246 | 8.0921 | 2025-12-09 16:37:29 | in_vehicle | 100 | 6.9827532253883 | |
| 68947 | 251209_787783_0_1632 | 787783 | (not set) | (not set) | 38.897413430685 | -77.050178803079 | 0.3994 | 2025-12-09 16:37:36 | in_vehicle | 100 | 2.1189660876018 | |
| 68948 | 251209_785822_16656269_1608 | 785822 | (not set) | (not set) | 38.933819245814 | -76.985482333912 | 6.3366 | 2025-12-09 16:37:43 | on_foot | 100 | 1.7926274285408 | |
| 68949 | 251209_766248_16633162_1631 | 766248 | (not set) | (not set) | 38.902214496348 | -77.050236700627 | 0.2894 | 2025-12-09 16:37:48 | on_foot | 100 | 0.46045043675736 | |
| 68950 | 251209_786243_16654537_1633 | 786243 | (not set) | (not set) | 39.3616688 | -76.6643613 | 1.1927 | 2025-12-09 16:37:52 | in_vehicle | 100 | 5.4449381744705 | |
| 68951 | 251209_789426_16658281_1630 | 789426 | (not set) | (not set) | 38.894888128933 | -77.060450285518 | 0.1477 | 2025-12-09 16:37:57 | in_vehicle | 100 | -0.44703925898772 | |
| 68952 | 251209_790478_16659500_1530 | 790478 | (not set) | (not set) | 38.879681954353 | -77.481320624371 | 42.9695 | 2025-12-09 16:38:02 | in_vehicle | 100 | 5.498582885549 | |
| 68953 | 251209_781336_16649009_1604 | 781336 | (not set) | (not set) | 38.962445324323 | -77.437783218992 | 20.3884 | 2025-12-09 16:38:08 | in_vehicle | 100 | 8.4445716022781 | |
| 68954 | 251209_781336_16649009_1604 | 781336 | (not set) | (not set) | 38.962435978501 | -77.438224610013 | 20.4122 | 2025-12-09 16:38:11 | in_vehicle | 100 | 8.4445716022781 | |
| 68955 | 251209_787968_16656505_1555 | 787968 | (not set) | (not set) | 38.830638080575 | -77.437248622907 | 36.2175 | 2025-12-09 16:38:13 | in_vehicle | 100 | 0.022351962949386 | |
| 68956 | 251209_788084_16656640_1604 | 788084 | (not set) | (not set) | 39.303406469716 | -76.530454981226 | 9.4064 | 2025-12-09 16:33:00 | in_vehicle | 100 | 13.531878369558 | |
| 68957 | 251209_786113_16654392_1551 | 786113 | (not set) | (not set) | 38.847610411593 | -77.42892930603 | 34.7591 | 2025-12-09 16:33:06 | in_vehicle | 100 | 7.7293087878978 | |
| 68958 | 251209_785261_16655848_1543 | 785261 | (not set) | (not set) | 38.858052306695 | -77.361102645319 | 20.0042 | 2025-12-09 16:33:09 | on_foot | 100 | 0.37104258495981 | |
| 68959 | 251209_769309_16636345_1600 | 769309 | (not set) | (not set) | 38.953027775819 | -77.383339715808 | 21.83 | 2025-12-09 16:33:18 | in_vehicle | 100 | 12.38298747396 | |
| 68960 | 251209_760008_16626628_1633 | 760008 | (not set) | (not set) | 38.8754933 | -76.9958457 | 0 | 2025-12-09 16:33:21 | in_vehicle | 100 | 0.093878244387422 |